createdAt,value
2019-03-17T00:00:17.667Z,8.80
2019-03-17T00:02:46.091Z,8.70
2019-03-17T00:05:14.593Z,8.60
2019-03-17T00:07:43.051Z,8.60
2019-03-17T00:10:11.803Z,8.50
2019-03-17T00:12:40.242Z,8.50
2019-03-17T00:15:08.866Z,8.40
2019-03-17T00:17:37.300Z,8.50
2019-03-17T00:20:09.019Z,8.40
2019-03-17T00:22:37.892Z,8.40
2019-03-17T00:25:09.757Z,8.30
2019-03-17T00:27:36.869Z,8.30
2019-03-17T00:30:11.074Z,8.30
2019-03-17T00:32:39.506Z,8.20
2019-03-17T00:35:07.939Z,8.20
2019-03-17T00:37:36.469Z,8.20
2019-03-17T00:40:07.892Z,8.20
2019-03-17T00:42:36.323Z,8.20
2019-03-17T00:45:07.914Z,8.20
2019-03-17T00:47:36.342Z,8.30
2019-03-17T00:50:10.078Z,8.30
2019-03-17T00:52:38.566Z,8.40
2019-03-17T00:55:07.285Z,8.40
2019-03-17T00:57:35.746Z,8.30
2019-03-17T01:00:07.001Z,8.20
2019-03-17T01:02:35.434Z,8.20
2019-03-17T01:05:05.104Z,8.20
2019-03-17T01:07:33.561Z,8.20
2019-03-17T01:10:01.988Z,8.10
2019-03-17T01:12:30.424Z,8.10
2019-03-17T01:14:58.889Z,8.10
2019-03-17T01:17:27.315Z,8.10
2019-03-17T01:19:55.746Z,8.00
2019-03-17T01:22:24.206Z,8.00
2019-03-17T01:24:52.627Z,7.90
2019-03-17T01:27:21.074Z,7.90
2019-03-17T01:29:49.806Z,7.80
2019-03-17T01:32:18.580Z,7.70
2019-03-17T01:34:47.003Z,7.60
2019-03-17T01:37:15.459Z,7.60
2019-03-17T01:39:43.877Z,7.60
2019-03-17T01:42:12.314Z,7.40
2019-03-17T01:44:40.875Z,7.40
2019-03-17T01:47:09.620Z,7.40
2019-03-17T01:49:38.046Z,7.40
2019-03-17T01:52:06.500Z,7.30
2019-03-17T01:54:35.003Z,7.30
2019-03-17T01:57:03.514Z,7.20
2019-03-17T01:59:32.352Z,7.10
2019-03-17T02:02:00.784Z,7.10
2019-03-17T02:04:29.214Z,7.10
2019-03-17T02:06:57.724Z,7.10
2019-03-17T02:09:26.502Z,7.20
2019-03-17T02:11:55.193Z,7.20
2019-03-17T02:14:23.742Z,7.10
2019-03-17T02:16:52.471Z,7.10
2019-03-17T02:19:20.982Z,7.10
2019-03-17T02:21:49.459Z,7.20
2019-03-17T02:24:17.890Z,7.20
2019-03-17T02:26:46.327Z,7.20
2019-03-17T02:29:14.797Z,7.10
2019-03-17T02:31:43.590Z,7.10
2019-03-17T02:34:12.335Z,7.10
2019-03-17T02:36:40.967Z,7.10
2019-03-17T02:39:09.750Z,7.20
2019-03-17T02:41:38.181Z,7.10
2019-03-17T02:44:06.655Z,7.10
2019-03-17T02:46:35.129Z,7.00
2019-03-17T02:49:03.595Z,7.00
2019-03-17T02:51:32.144Z,7.00
2019-03-17T02:54:00.594Z,7.00
2019-03-17T02:56:29.024Z,6.90
2019-03-17T02:58:57.554Z,6.90
2019-03-17T03:01:26.053Z,6.80
2019-03-17T03:03:54.478Z,6.80
2019-03-17T03:06:23.034Z,6.80
2019-03-17T03:08:51.462Z,6.80
2019-03-17T03:11:19.887Z,6.80
2019-03-17T03:13:48.652Z,6.80
2019-03-17T03:16:17.082Z,6.70
2019-03-17T03:18:45.661Z,6.60
2019-03-17T03:21:14.195Z,6.60
2019-03-17T03:23:42.711Z,6.60
2019-03-17T03:26:11.309Z,6.60
2019-03-17T03:28:40.131Z,6.50
2019-03-17T03:31:08.570Z,6.50
2019-03-17T03:33:37.071Z,6.50
2019-03-17T03:36:11.289Z,6.40
2019-03-17T03:38:35.681Z,6.40
2019-03-17T03:41:04.288Z,6.40
2019-03-17T03:43:32.736Z,6.30
2019-03-17T03:46:01.243Z,6.30
2019-03-17T03:48:29.672Z,6.30
2019-03-17T04:50:05.382Z,7.40
2019-03-17T04:52:33.812Z,7.40
2019-03-17T04:55:02.242Z,7.40
2019-03-17T04:57:30.711Z,7.40
2019-03-17T04:59:59.212Z,7.30
2019-03-17T05:02:27.650Z,7.30
2019-03-17T05:04:56.112Z,7.30
2019-03-17T05:07:24.619Z,7.30
2019-03-17T05:09:53.045Z,7.30
2019-03-17T05:12:21.670Z,7.40
2019-03-17T05:14:50.104Z,7.40
2019-03-17T05:17:18.530Z,7.40
2019-03-17T05:19:47.050Z,7.50
2019-03-17T05:22:15.794Z,7.60
2019-03-17T05:24:44.238Z,7.70
2019-03-17T05:27:13.295Z,7.70
2019-03-17T05:29:41.819Z,7.70
2019-03-17T05:32:10.305Z,7.70
2019-03-17T05:34:38.760Z,7.80
2019-03-17T05:37:07.273Z,7.80
2019-03-17T05:39:36.119Z,7.80
2019-03-17T05:42:04.643Z,8.00
2019-03-17T05:44:33.074Z,8.00
2019-03-17T05:47:01.498Z,8.00
2019-03-17T05:49:30.288Z,8.00
2019-03-17T05:51:58.727Z,8.00
2019-03-17T05:54:27.149Z,8.00
2019-03-17T05:56:55.651Z,8.00
2019-03-17T05:59:24.115Z,8.00
2019-03-17T06:01:52.543Z,8.00
2019-03-17T06:04:21.029Z,7.90
2019-03-17T06:06:49.524Z,7.90
2019-03-17T06:09:17.970Z,7.80
2019-03-17T06:11:46.443Z,7.80
2019-03-17T06:14:15.298Z,7.80
2019-03-17T06:16:44.106Z,7.70
2019-03-17T06:19:12.554Z,7.70
2019-03-17T06:21:40.978Z,7.70
2019-03-17T06:24:09.406Z,7.70
2019-03-17T06:26:37.867Z,7.70
2019-03-17T06:29:06.301Z,7.70
2019-03-17T06:31:34.735Z,7.80
2019-03-17T06:34:03.347Z,7.80
2019-03-17T06:36:31.938Z,7.80
2019-03-17T06:39:00.377Z,7.80
2019-03-17T06:41:28.847Z,7.90
2019-03-17T06:43:57.277Z,7.90
2019-03-17T06:46:25.710Z,7.90
2019-03-17T06:48:54.246Z,7.90
2019-03-17T06:51:22.680Z,7.90
2019-03-17T06:53:56.451Z,7.90
2019-03-17T06:56:21.339Z,7.90
2019-03-17T06:58:49.780Z,8.00
2019-03-17T07:01:18.209Z,8.00
2019-03-17T07:03:46.886Z,8.10
2019-03-17T07:06:15.322Z,8.40
2019-03-17T07:08:43.748Z,8.70
2019-03-17T07:11:12.285Z,8.80
2019-03-17T07:13:41.098Z,8.90
2019-03-17T07:16:09.518Z,9.00
2019-03-17T07:18:38.003Z,9.10
2019-03-17T07:21:06.428Z,9.20
2019-03-17T07:23:34.892Z,9.20
2019-03-17T07:26:03.626Z,9.20
2019-03-17T07:28:32.908Z,9.10
2019-03-17T07:31:01.470Z,9.10
2019-03-17T07:33:29.954Z,9.10
2019-03-17T07:35:58.523Z,9.00
2019-03-17T07:38:28.760Z,9.10
2019-03-17T07:40:57.209Z,9.10
2019-03-17T07:43:25.643Z,9.10
2019-03-17T07:45:54.091Z,9.20
2019-03-17T07:48:22.565Z,9.20
2019-03-17T07:50:51.057Z,9.30
2019-03-17T07:53:19.491Z,9.40
2019-03-17T07:55:47.962Z,9.50
2019-03-17T07:58:16.386Z,9.60
2019-03-17T08:00:45.115Z,9.70
2019-03-17T08:03:13.617Z,9.80
2019-03-17T08:05:42.357Z,9.90
2019-03-17T08:08:10.782Z,9.90
2019-03-17T08:10:39.269Z,10.00
2019-03-17T08:13:07.714Z,10.20
2019-03-17T08:15:36.207Z,10.30
2019-03-17T08:18:04.671Z,10.40
2019-03-17T08:20:33.167Z,10.50
2019-03-17T08:23:01.606Z,10.70
2019-03-17T08:25:30.190Z,10.90
2019-03-17T08:27:58.623Z,11.00
2019-03-17T08:30:27.067Z,11.30
2019-03-17T08:32:55.512Z,11.50
2019-03-17T08:35:24.326Z,11.70
2019-03-17T08:37:52.765Z,11.90
2019-03-17T08:40:21.227Z,12.00
2019-03-17T08:42:49.662Z,12.00
2019-03-17T08:45:18.103Z,12.00
2019-03-17T08:47:57.085Z,12.10
2019-03-17T08:50:17.035Z,12.10
2019-03-17T09:49:23.225Z,14.10
2019-03-17T09:51:51.650Z,14.00
2019-03-17T09:54:20.780Z,13.90
2019-03-17T09:56:49.207Z,13.90
2019-03-17T09:59:17.806Z,13.70
2019-03-17T10:01:46.486Z,13.70
2019-03-17T10:04:14.920Z,13.60
2019-03-17T10:06:43.356Z,13.50
2019-03-17T10:09:11.815Z,13.50
2019-03-17T10:11:40.262Z,13.40
2019-03-17T10:14:08.874Z,13.40
2019-03-17T10:16:37.535Z,13.40
2019-03-17T10:19:06.394Z,13.40
2019-03-17T10:21:34.882Z,13.40
2019-03-17T10:24:03.438Z,13.40
2019-03-17T10:26:31.871Z,13.40
2019-03-17T10:29:00.308Z,13.30
2019-03-17T10:31:28.787Z,13.30
2019-03-17T10:33:57.247Z,13.30
2019-03-17T10:36:26.050Z,13.30
2019-03-17T10:38:54.973Z,13.30
2019-03-17T10:41:23.465Z,13.30
2019-03-17T10:43:51.907Z,13.30
2019-03-17T10:46:20.698Z,13.30
2019-03-17T10:48:49.143Z,13.30
2019-03-17T10:51:17.999Z,13.40
2019-03-17T10:53:46.474Z,13.40
2019-03-17T10:56:14.932Z,13.50
2019-03-17T10:58:43.469Z,13.60
2019-03-17T11:01:11.926Z,13.60
2019-03-17T11:03:40.362Z,13.70
2019-03-17T11:06:09.099Z,13.70
2019-03-17T11:08:37.579Z,13.80
2019-03-17T11:11:06.090Z,13.80
2019-03-17T11:13:34.534Z,13.80
2019-03-17T11:16:03.343Z,13.90
2019-03-17T11:18:32.035Z,14.00
2019-03-17T11:21:00.929Z,14.10
2019-03-17T11:23:29.722Z,14.20
2019-03-17T11:25:58.162Z,14.20
2019-03-17T11:28:26.598Z,14.30
2019-03-17T11:30:57.329Z,14.50
2019-03-17T11:33:25.755Z,14.40
2019-03-17T11:35:54.190Z,14.50
2019-03-17T11:38:22.666Z,14.50
2019-03-17T11:40:51.692Z,14.50
2019-03-17T11:43:20.118Z,14.40
2019-03-17T11:45:48.598Z,14.40
2019-03-17T11:48:17.037Z,14.40
2019-03-17T11:50:45.463Z,14.30
2019-03-17T11:53:13.929Z,14.30
2019-03-17T11:55:42.361Z,14.20
2019-03-17T11:58:10.790Z,14.20
2019-03-17T12:00:39.323Z,14.20
2019-03-17T12:03:07.771Z,14.20
2019-03-17T12:05:36.204Z,14.20
2019-03-17T12:08:04.801Z,14.20
2019-03-17T12:10:33.231Z,14.20
2019-03-17T12:13:01.738Z,14.20
2019-03-17T12:15:32.588Z,14.20
2019-03-17T12:18:01.428Z,14.30
2019-03-17T12:20:29.921Z,14.40
2019-03-17T12:22:58.519Z,14.40
2019-03-17T12:25:27.005Z,14.60
2019-03-17T12:27:55.715Z,14.60
2019-03-17T12:30:24.891Z,14.70
2019-03-17T12:32:54.289Z,14.70
2019-03-17T12:35:23.041Z,14.70
2019-03-17T12:37:51.863Z,14.70
2019-03-17T12:40:20.683Z,14.60
2019-03-17T12:42:49.247Z,14.70
2019-03-17T12:45:17.793Z,14.80
2019-03-17T12:47:46.227Z,14.80
2019-03-17T12:50:19.746Z,14.80
2019-03-17T12:52:48.218Z,14.80
2019-03-17T12:55:16.792Z,14.90
2019-03-17T12:57:45.354Z,14.80
2019-03-17T13:00:16.329Z,14.90
2019-03-17T13:02:44.824Z,14.90
2019-03-17T13:05:13.796Z,14.80
2019-03-17T13:07:42.250Z,14.80
2019-03-17T13:10:15.986Z,14.80
2019-03-17T13:12:43.621Z,14.80
2019-03-17T13:15:12.479Z,14.80
2019-03-17T13:17:40.911Z,14.80
2019-03-17T13:20:16.732Z,14.80
2019-03-17T13:22:45.170Z,14.80
2019-03-17T13:25:13.877Z,14.90
2019-03-17T13:27:42.998Z,14.90
2019-03-17T13:30:16.280Z,14.90
2019-03-17T13:32:44.719Z,14.90
2019-03-17T13:35:13.507Z,14.90
2019-03-17T13:37:42.073Z,14.90
2019-03-17T13:40:27.731Z,15.00
2019-03-17T13:42:45.477Z,15.00
2019-03-17T13:45:14.354Z,15.00
2019-03-17T13:47:42.959Z,14.90
2019-03-17T13:50:19.655Z,14.90
2019-03-17T13:52:48.174Z,14.80
2019-03-17T13:55:16.769Z,14.70
2019-03-17T13:57:50.798Z,14.70
2019-03-17T14:00:19.308Z,14.70
2019-03-17T14:02:47.751Z,14.60
2019-03-17T14:05:16.263Z,14.50
2019-03-17T14:07:45.203Z,14.50
2019-03-17T14:10:17.949Z,14.50
2019-03-17T14:12:46.409Z,14.40
2019-03-17T14:15:15.495Z,14.20
2019-03-17T14:17:44.006Z,14.20
2019-03-17T14:20:20.321Z,14.10
2019-03-17T14:22:47.693Z,14.10
2019-03-17T14:25:31.366Z,13.90
2019-03-17T14:28:00.663Z,13.90
2019-03-17T14:30:29.177Z,13.80
2019-03-17T14:32:57.698Z,13.80
2019-03-17T14:35:26.138Z,13.70
2019-03-17T14:37:54.616Z,13.70
2019-03-17T14:40:23.071Z,13.60
2019-03-17T14:42:51.772Z,13.60
2019-03-17T14:45:20.403Z,13.60
2019-03-17T14:47:48.884Z,13.60
2019-03-17T14:50:23.498Z,13.60
2019-03-17T14:52:52.154Z,13.50
2019-03-17T14:55:20.663Z,13.50
2019-03-17T14:57:49.103Z,13.50
2019-03-17T15:00:19.482Z,13.40
2019-03-17T15:02:48.165Z,13.30
2019-03-17T15:05:16.688Z,13.20
2019-03-17T15:07:45.505Z,13.10
2019-03-17T15:10:16.542Z,12.90
2019-03-17T15:12:45.141Z,12.80
2019-03-17T15:15:17.840Z,12.70
2019-03-17T15:17:46.551Z,12.60
2019-03-17T15:20:20.046Z,12.50
2019-03-17T15:22:48.606Z,12.30
2019-03-17T15:25:17.204Z,12.10
2019-03-17T15:27:45.638Z,11.80
2019-03-17T15:30:18.588Z,11.60
2019-03-17T15:32:47.123Z,11.40
2019-03-17T15:35:15.699Z,11.20
2019-03-17T15:37:44.562Z,11.20
2019-03-17T15:40:16.904Z,11.00
2019-03-17T15:42:45.363Z,10.80
2019-03-17T15:45:16.186Z,10.60
2019-03-17T15:47:44.806Z,10.50
2019-03-17T15:50:18.894Z,10.30
2019-03-17T15:52:47.424Z,10.00
2019-03-17T15:55:16.796Z,9.70
2019-03-17T15:57:45.300Z,9.40
2019-03-17T16:00:25.570Z,9.30
2019-03-17T16:02:51.986Z,9.20
2019-03-17T16:05:20.653Z,9.00
2019-03-17T16:07:49.115Z,9.00
2019-03-17T16:10:25.917Z,8.90
2019-03-17T16:12:54.369Z,8.80
2019-03-17T16:15:22.806Z,8.80
2019-03-17T16:17:51.318Z,8.80
2019-03-17T16:20:21.578Z,8.60
2019-03-17T16:22:50.075Z,8.50
2019-03-17T16:25:21.172Z,8.40
2019-03-17T16:27:49.686Z,8.30
2019-03-17T16:30:23.401Z,8.20
2019-03-17T16:32:52.156Z,8.10
2019-03-17T16:35:20.771Z,7.90
2019-03-17T16:37:49.341Z,7.70
2019-03-17T16:40:25.999Z,7.60
2019-03-17T16:42:55.265Z,7.40
2019-03-17T16:45:23.846Z,7.40
2019-03-17T16:47:52.444Z,7.30
2019-03-17T16:50:24.499Z,7.20
2019-03-17T16:52:52.940Z,7.10
2019-03-17T16:55:21.699Z,7.20
2019-03-17T16:57:50.206Z,6.60
2019-03-17T17:00:21.766Z,6.50
2019-03-17T17:02:50.747Z,6.40
2019-03-17T17:05:20.223Z,6.10
2019-03-17T17:07:48.654Z,6.20
2019-03-17T17:10:24.578Z,6.10
2019-03-17T17:12:53.012Z,6.10
2019-03-17T17:15:29.139Z,6.00
2019-03-17T17:17:57.698Z,5.90
2019-03-17T17:20:31.685Z,5.90
2019-03-17T17:23:00.430Z,5.90
2019-03-17T17:25:28.976Z,5.90
2019-03-17T17:27:57.468Z,5.90
2019-03-17T17:30:25.968Z,5.80
2019-03-17T17:32:54.775Z,5.70
2019-03-17T17:35:23.214Z,5.60
2019-03-17T17:37:51.646Z,5.50
2019-03-17T17:40:22.488Z,5.50
2019-03-17T17:42:50.993Z,5.50
2019-03-17T17:45:20.965Z,5.50
2019-03-17T17:47:49.546Z,5.50
2019-03-17T17:50:19.370Z,5.50
2019-03-17T17:52:47.887Z,5.50
2019-03-17T17:55:16.512Z,5.40
2019-03-17T17:57:44.986Z,5.50
2019-03-17T18:00:19.490Z,5.40
2019-03-17T18:02:47.963Z,5.40
2019-03-17T18:05:16.395Z,5.40
2019-03-17T18:07:44.827Z,5.30
2019-03-17T18:10:14.827Z,5.40
2019-03-17T18:12:43.692Z,5.40
2019-03-17T18:15:21.271Z,5.50
2019-03-17T18:17:49.760Z,5.40
2019-03-17T18:20:18.191Z,5.40
2019-03-17T18:22:47.101Z,5.40
2019-03-17T18:25:21.788Z,5.40
2019-03-17T18:27:51.563Z,5.40
2019-03-17T18:30:21.236Z,5.40
2019-03-17T18:32:50.582Z,5.30
2019-03-17T18:35:19.221Z,5.20
2019-03-17T18:37:47.762Z,5.30
2019-03-17T18:40:19.119Z,5.20
2019-03-17T18:42:47.879Z,5.30
2019-03-17T18:45:32.590Z,5.20
2019-03-17T18:48:01.169Z,5.30
2019-03-17T18:50:29.607Z,5.30
2019-03-17T18:53:00.321Z,5.30
2019-03-17T18:55:29.007Z,5.30
2019-03-17T18:57:57.434Z,5.30
2019-03-17T19:00:26.426Z,5.40
2019-03-17T19:02:55.299Z,5.30
2019-03-17T19:05:23.730Z,5.40
2019-03-17T19:11:21.311Z,5.50
2019-03-17T19:13:50.238Z,5.40
2019-03-17T19:16:18.670Z,5.40
2019-03-17T19:18:47.720Z,5.40
2019-03-17T19:21:16.161Z,5.40
2019-03-17T19:23:44.820Z,5.40
2019-03-17T19:26:13.430Z,5.40
2019-03-17T19:28:41.873Z,5.40
2019-03-17T19:31:10.295Z,5.50
2019-03-17T19:33:38.867Z,5.50
2019-03-17T19:36:07.296Z,5.30
2019-03-17T19:38:35.719Z,5.40
2019-03-17T19:41:04.446Z,5.40
2019-03-17T19:43:32.866Z,5.40
2019-03-17T19:46:01.297Z,5.40
2019-03-17T19:48:29.837Z,5.40
2019-03-17T20:50:21.699Z,5.60
2019-03-17T20:52:50.196Z,5.70
2019-03-17T20:55:18.665Z,5.70
2019-03-17T20:57:47.429Z,5.70
2019-03-17T21:00:17.873Z,5.70
2019-03-17T21:02:46.365Z,5.70
2019-03-17T21:05:15.040Z,5.60
2019-03-17T21:07:43.536Z,5.60
2019-03-17T21:10:17.241Z,5.70
2019-03-17T21:12:46.102Z,5.60
2019-03-17T21:15:21.141Z,5.60
2019-03-17T21:17:49.760Z,5.70
2019-03-17T21:20:23.471Z,5.60
2019-03-17T21:22:51.998Z,5.60
2019-03-17T21:25:20.612Z,5.60
2019-03-17T21:27:49.539Z,5.50
2019-03-17T21:30:29.042Z,5.50
2019-03-17T21:32:57.732Z,5.50
2019-03-17T21:35:26.233Z,5.50
2019-03-17T21:37:55.027Z,5.50
2019-03-17T21:40:24.140Z,5.50
2019-03-17T21:42:52.921Z,5.50
2019-03-17T21:45:21.411Z,5.50
2019-03-17T21:47:49.899Z,5.50
2019-03-17T21:50:21.438Z,5.40
2019-03-17T21:52:50.103Z,5.40
2019-03-17T21:55:18.672Z,5.40
2019-03-17T21:57:47.458Z,5.40
2019-03-17T22:00:20.457Z,5.40
2019-03-17T22:02:49.231Z,5.30
2019-03-17T22:05:17.661Z,5.40
2019-03-17T22:07:51.108Z,5.40
2019-03-17T22:10:17.648Z,5.40
2019-03-17T22:12:46.250Z,5.40
2019-03-17T22:15:15.783Z,5.40
2019-03-17T22:17:44.353Z,5.40
2019-03-17T22:20:14.390Z,5.40
2019-03-17T22:22:43.410Z,5.30
2019-03-17T22:25:13.348Z,5.30
2019-03-17T22:27:41.835Z,5.30
2019-03-17T22:30:14.598Z,5.30
2019-03-17T22:32:43.154Z,5.30
2019-03-17T22:35:11.815Z,5.30
2019-03-17T22:37:40.522Z,5.30
2019-03-17T22:40:18.620Z,5.30
2019-03-17T22:42:47.110Z,5.40
2019-03-17T22:45:18.464Z,5.30
2019-03-17T22:47:46.891Z,5.40
2019-03-17T22:50:18.851Z,5.40
2019-03-17T22:52:47.334Z,5.40
2019-03-17T22:55:16.037Z,5.40
2019-03-17T22:57:44.586Z,5.40
2019-03-17T23:00:35.906Z,5.40
2019-03-17T23:03:05.287Z,5.40
2019-03-17T23:05:34.188Z,5.40
2019-03-17T23:08:02.678Z,5.40
2019-03-17T23:10:31.142Z,5.40
2019-03-17T23:12:59.637Z,5.30
2019-03-17T23:15:28.202Z,5.30
2019-03-17T23:17:56.810Z,5.30
2019-03-17T23:20:25.309Z,5.30
2019-03-17T23:22:54.041Z,5.30
2019-03-17T23:25:22.509Z,5.30
2019-03-17T23:27:50.976Z,5.20
2019-03-17T23:30:20.879Z,5.20
2019-03-17T23:32:49.846Z,5.20
2019-03-17T23:35:18.502Z,5.10
2019-03-17T23:37:47.005Z,5.10
2019-03-17T23:40:17.741Z,5.10
2019-03-17T23:42:46.183Z,5.10
2019-03-17T23:45:14.870Z,5.00
2019-03-17T23:47:43.425Z,5.10
2019-03-17T23:50:13.504Z,5.10
2019-03-17T23:52:42.034Z,5.00
2019-03-17T23:55:12.162Z,5.00
2019-03-17T23:57:40.710Z,5.00
